Shelby — WCV6157 — position and weather

sailwx.info

Track history (hours):
 
Tides and Currents Weather Stations Pressure Air Temp Water Temp Dewpoint Dewpoint Depression Visibility Wind Speed Wind Dir Waves Ship Positions

Shelby

Owner: WEEKS MARINE, INC., CRANFORD, NJ. More information available from US FCC via Universal Licensing System and Coast Guard Vessel Documentation Center.

Last reported at 2016-Feb-14 20:33 UTC. Time now 2016-Feb-14 21:04 UTC.
Position N 39°49' W 075°23'.

Length 22 m; draft 3.1 m.

Type: Tug. MMSI: 366902344.

Date/timePositionNaut miles runAvg speedWind from/ knotsBaromVisibWave heightAir tempDewpointWater temp
2016-Feb-14 20:33N 39°49' W 075°23'0 0.0
2016-Feb-14 19:11N 39°49' W 075°23'2 2.6
2016-Feb-14 18:32N 39°50' W 075°22'2 1.7
2016-Feb-14 17:34N 39°49' W 075°24'0 0.0
2016-Feb-14 16:19N 39°49' W 075°24'0 0.0
2016-Feb-14 15:33N 39°49' W 075°24'1 0.7
2016-Feb-14 14:33N 39°50' W 075°23'1 0.9
2016-Feb-14 13:33N 39°49' W 075°22'1 1.2
2016-Feb-14 12:28N 39°49' W 075°23'0 0.0
2016-Feb-14 11:24N 39°49' W 075°23'0 0.0
2016-Feb-14 09:08N 39°49' W 075°23'0 0.0
2016-Feb-14 08:18N 39°49' W 075°23'0 0.0
2016-Feb-14 07:30N 39°49' W 075°23'0 0.0
2016-Feb-14 06:33N 39°49' W 075°23'0 0.0
2016-Feb-14 05:26N 39°49' W 075°23'0 0.0
2016-Feb-14 04:33N 39°49' W 075°23'0 0.0
2016-Feb-14 03:20N 39°49' W 075°23'0 0.0
2016-Feb-14 02:33N 39°49' W 075°23'0 0.0
2016-Feb-14 01:30N 39°49' W 075°23'0 0.0
2016-Feb-14 00:33N 39°49' W 075°23'0 0.1
2016-Feb-13 23:33N 39°49' W 075°24'0 0.0
2016-Feb-13 22:27N 39°49' W 075°24'0 0.0
2016-Feb-13 19:11N 39°49' W 075°23'0 0.0
2016-Feb-13 18:10N 39°49' W 075°23'2 2.5
2016-Feb-13 17:33N 39°50' W 075°22'2 1.5
2016-Feb-13 16:32N 39°49' W 075°24'0 0.0
2016-Feb-13 15:32N 39°49' W 075°24'0 0.0
2016-Feb-13 14:33N 39°49' W 075°24'0 0.0
2016-Feb-13 13:32N 39°49' W 075°23'0 0.0
2016-Feb-13 12:32N 39°49' W 075°23'0 0.0
2016-Feb-13 11:24N 39°49' W 075°23'0 0.0
2016-Feb-13 10:30N 39°49' W 075°23'0 0.0
2016-Feb-13 09:33N 39°49' W 075°23'0 0.0
2016-Feb-13 08:32N 39°49' W 075°23'0 0.0
2016-Feb-13 07:32N 39°49' W 075°23'0 0.0
2016-Feb-13 06:31N 39°49' W 075°23'0 0.0
2016-Feb-13 05:34N 39°49' W 075°23'0 0.3
2016-Feb-13 04:34N 39°49' W 075°23'1 0.4
2016-Feb-13 02:32N 39°50' W 075°22'1 0.5
2016-Feb-13 00:32N 39°49' W 075°23'0 0.0
2016-Feb-12 22:27N 39°49' W 075°23'0 0.0
2016-Feb-12 20:29N 39°49' W 075°23'0 0.0
2016-Feb-12 19:32N 39°49' W 075°23'0 0.0
2016-Feb-11 18:24N 39°49' W 075°24'2 1.8
2016-Feb-11 17:28N 39°49' W 075°22'5 0.2
2016-Feb-10 17:22N 39°47' W 075°27'0 0.5
2016-Feb-10 16:34N 39°48' W 075°27'0 0.4
2016-Feb-10 15:34N 39°47' W 075°27'0 0.0
2016-Feb-10 14:34N 39°47' W 075°27'0 0.4
2016-Feb-10 13:33N 39°48' W 075°27'0 0.0
2016-Feb-10 12:33N 39°48' W 075°27'0 0.0
2016-Feb-10 11:34N 39°48' W 075°27'0 0.1
2016-Feb-10 10:33N 39°48' W 075°27'0 0.2
2016-Feb-10 09:33N 39°47' W 075°27'0 0.0
2016-Feb-10 08:34N 39°47' W 075°27'0 0.0
2016-Feb-10 07:34N 39°47' W 075°27'0 0.0
2016-Feb-10 06:34N 39°47' W 075°27'0 0.0
2016-Feb-10 05:33N 39°47' W 075°27'0 0.0
2016-Feb-10 04:33N 39°47' W 075°27'0 0.0
2016-Feb-10 03:34N 39°47' W 075°27'0 0.0
2016-Feb-10 02:34N 39°47' W 075°27'0 0.0
2016-Feb-10 01:34N 39°47' W 075°27'0 0.0
2016-Feb-10 00:34N 39°47' W 075°27'0 0.0
2016-Feb-09 23:34N 39°47' W 075°27'0 0.0
2016-Feb-09 22:34N 39°47' W 075°27'0 0.0
2016-Feb-09 21:34N 39°47' W 075°27'0 0.0
2016-Feb-09 20:29N 39°47' W 075°27'0 0.0
2016-Feb-09 19:34N 39°47' W 075°27'0 0.1
2016-Feb-09 18:33N 39°47' W 075°27'0 0.2
2016-Feb-09 17:34N 39°47' W 075°27'0 0.0
2016-Feb-09 16:33N 39°47' W 075°27'0 0.0
2016-Feb-09 15:34N 39°47' W 075°27'0 0.0
2016-Feb-09 14:34N 39°47' W 075°27'2 2.4
2016-Feb-09 13:33N 39°48' W 075°25'3 2.8
2016-Feb-09 12:33N 39°50' W 075°22'0 0.0
2016-Feb-09 11:33N 39°50' W 075°22'1 1.4
2016-Feb-09 10:34N 39°51' W 075°20'0 0.2
2016-Feb-09 09:34N 39°51' W 075°21'1 1.2
2016-Feb-09 08:34N 39°50' W 075°22'1 1.1
2016-Feb-09 07:34N 39°50' W 075°23'4 3.8
2016-Feb-09 06:34N 39°47' W 075°27'0 0.3
2016-Feb-09 05:34N 39°47' W 075°27'0 0.0
2016-Feb-09 04:34N 39°47' W 075°27'0 0.0
2016-Feb-09 03:34N 39°47' W 075°27'0 0.0
2016-Feb-09 02:34N 39°47' W 075°27'0 0.0
2016-Feb-09 01:34N 39°47' W 075°27'0 0.0
2016-Feb-09 00:34N 39°47' W 075°27'0 0.0
2016-Feb-08 23:34N 39°47' W 075°27'0 0.0
2016-Feb-08 22:34N 39°47' W 075°27'5 4.7
2016-Feb-08 21:34N 39°50' W 075°22'4 3.8
2016-Feb-08 20:34N 39°48' W 075°26'0 0.4
2016-Feb-08 19:34N 39°48' W 075°27'0 0.5
2016-Feb-08 18:34N 39°47' W 075°27'0 0.0
2016-Feb-08 17:33N 39°47' W 075°27'0 0.0
2016-Feb-08 16:33N 39°47' W 075°27'0 0.1
2016-Feb-08 15:34N 39°47' W 075°27'2 2.4
2016-Feb-08 14:33N 39°49' W 075°24'2 2.3
2016-Feb-08 13:34N 39°50' W 075°22'1 1.0
2016-Feb-08 12:34N 39°51' W 075°21'1 0.2
2016-Feb-08 08:22N 39°50' W 075°22'0 0.0
2016-Feb-08 07:33N 39°50' W 075°22'1 0.9
2016-Feb-08 06:34N 39°51' W 075°21'0 0.0
2016-Feb-08 05:34N 39°51' W 075°21'0 0.0
2016-Feb-08 04:33N 39°51' W 075°21'0 0.0
2016-Feb-08 03:34N 39°51' W 075°21'0 0.0
2016-Feb-08 02:34N 39°51' W 075°21'0 0.0
2016-Feb-08 01:33N 39°51' W 075°21'0 0.0
2016-Feb-08 00:34N 39°51' W 075°21'0 0.0
2016-Feb-07 23:34N 39°51' W 075°21'0 0.0
2016-Feb-07 22:34N 39°51' W 075°21'0 0.0
2016-Feb-07 21:34N 39°51' W 075°21'0 0.0
2016-Feb-07 20:34N 39°51' W 075°21'0 0.0
2016-Feb-07 19:34N 39°51' W 075°21'0 0.0
2016-Feb-07 18:34N 39°51' W 075°21'0 0.0
2016-Feb-07 17:33N 39°51' W 075°21'0 0.0
2016-Feb-07 16:34N 39°51' W 075°21'0 0.0
2016-Feb-07 15:34N 39°51' W 075°21'0 0.0
2016-Feb-07 14:33N 39°51' W 075°21'0 0.0
2016-Feb-07 13:33N 39°51' W 075°21'0 0.0
2016-Feb-07 12:34N 39°51' W 075°21'0 0.0
2016-Feb-07 11:34N 39°51' W 075°21'0 0.0
2016-Feb-07 10:34N 39°51' W 075°21'0 0.0
2016-Feb-07 09:34N 39°51' W 075°21'0 0.0
2016-Feb-07 08:34N 39°51' W 075°21'0 0.0
2016-Feb-07 07:34N 39°51' W 075°21'0 0.0
2016-Feb-07 06:34N 39°51' W 075°21'1 1.0
2016-Feb-07 05:34N 39°50' W 075°22'0 0.1
2016-Feb-07 04:34N 39°50' W 075°22'1 0.9
2016-Feb-07 03:34N 39°51' W 075°21'0 0.1
2016-Feb-07 02:34N 39°51' W 075°21'0 0.0
2016-Feb-07 01:34N 39°51' W 075°21'0 0.0
2016-Feb-07 00:34N 39°51' W 075°21'0 0.0
2016-Feb-06 23:34N 39°51' W 075°21'0 0.0
2016-Feb-06 22:34N 39°51' W 075°21'0 0.0
2016-Feb-06 21:34N 39°51' W 075°21'0 0.0
2016-Feb-06 20:34N 39°51' W 075°21'0 0.0
2016-Feb-06 19:34N 39°51' W 075°21'0 0.0
2016-Feb-06 18:34N 39°51' W 075°21'0 0.0
2016-Feb-06 17:34N 39°51' W 075°21'0 0.0
2016-Feb-06 16:34N 39°51' W 075°21'0 0.0
2016-Feb-06 15:34N 39°51' W 075°21'0 0.0
2016-Feb-06 14:34N 39°51' W 075°21'0 0.0
2016-Feb-06 13:34N 39°51' W 075°21'2 1.8
2016-Feb-06 12:34N 39°50' W 075°23'2 1.8
2016-Feb-06 11:34N 39°51' W 075°21'0 0.0
2016-Feb-06 10:34N 39°51' W 075°21'0 0.0
2016-Feb-06 09:34N 39°51' W 075°21'0 0.0
2016-Feb-06 08:33N 39°51' W 075°21'0 0.0
2016-Feb-06 07:33N 39°51' W 075°21'0 0.0
2016-Feb-06 06:34N 39°51' W 075°21'0 0.0
2016-Feb-06 05:34N 39°51' W 075°21'0 0.0
2016-Feb-06 04:34N 39°51' W 075°21'0 0.0
2016-Feb-06 03:34N 39°51' W 075°21'0 0.0
2016-Feb-06 02:34N 39°51' W 075°21'0 0.0
2016-Feb-06 01:33N 39°51' W 075°21'0 0.0
2016-Feb-06 00:34N 39°51' W 075°21'0 0.0
2016-Feb-05 23:34N 39°51' W 075°21'0 0.0
2016-Feb-05 22:33N 39°51' W 075°21'0 0.0
2016-Feb-05 21:34N 39°51' W 075°21'0 0.0
2016-Feb-05 20:34N 39°51' W 075°21'0 0.0
2016-Feb-05 19:34N 39°51' W 075°21'0 0.0
2016-Feb-05 18:33N 39°51' W 075°21'0 0.0
2016-Feb-05 17:34N 39°51' W 075°21'0 0.0
2016-Feb-05 16:34N 39°51' W 075°21'0 0.0
2016-Feb-05 15:33N 39°51' W 075°21'0 0.0
2016-Feb-05 14:33N 39°51' W 075°21'2 1.5
2016-Feb-05 13:34N 39°50' W 075°23'1 0.8
2016-Feb-05 12:34N 39°50' W 075°22'0 0.0
2016-Feb-05 11:34N 39°50' W 075°22'0 0.0
2016-Feb-05 10:34N 39°50' W 075°22'1 1.3
2016-Feb-05 09:34N 39°51' W 075°20'0 0.4
2016-Feb-05 08:34N 39°51' W 075°21'2 1.9
2016-Feb-05 07:34N 39°50' W 075°23'2 1.7
2016-Feb-05 06:34N 39°51' W 075°21'0 0.0
2016-Feb-05 05:34N 39°51' W 075°21'0 0.0
2016-Feb-05 04:34N 39°51' W 075°21'0 0.0
2016-Feb-05 03:34N 39°51' W 075°21'0 0.0
2016-Feb-05 02:34N 39°51' W 075°21'0 0.0
2016-Feb-05 01:34N 39°51' W 075°21'0 0.0
2016-Feb-05 00:34N 39°51' W 075°21'0 0.0
2016-Feb-04 23:33N 39°51' W 075°21'0 0.0
2016-Feb-04 22:34N 39°51' W 075°21'0 0.0
2016-Feb-04 21:34N 39°51' W 075°21'0 0.0
2016-Feb-04 20:34N 39°51' W 075°21'  
Track history (hours):
 
Tides and Currents Weather Stations Pressure Air Temp Water Temp Dewpoint Dewpoint Depression Visibility Wind Speed Wind Dir Waves Ship Positions

Shelby

Owner: WEEKS MARINE, INC., CRANFORD, NJ. More information available from US FCC via Universal Licensing System and Coast Guard Vessel Documentation Center.

Last reported at 2016-Feb-14 20:33 UTC. Time now 2016-Feb-14 21:04 UTC.
Position N 39°49' W 075°23'.

Length 22 m; draft 3.1 m.

Type: Tug. MMSI: 366902344.

Date/timePositionNaut miles runAvg speedWind from/ knotsBaromVisibWave heightAir tempDewpointWater temp
2016-Feb-14 20:33N 39°49' W 075°23'0 0.0
2016-Feb-14 19:11N 39°49' W 075°23'2 2.6
2016-Feb-14 18:32N 39°50' W 075°22'2 1.7
2016-Feb-14 17:34N 39°49' W 075°24'0 0.0
2016-Feb-14 16:19N 39°49' W 075°24'0 0.0
2016-Feb-14 15:33N 39°49' W 075°24'1 0.7
2016-Feb-14 14:33N 39°50' W 075°23'1 0.9
2016-Feb-14 13:33N 39°49' W 075°22'1 1.2
2016-Feb-14 12:28N 39°49' W 075°23'0 0.0
2016-Feb-14 11:24N 39°49' W 075°23'0 0.0
2016-Feb-14 09:08N 39°49' W 075°23'0 0.0
2016-Feb-14 08:18N 39°49' W 075°23'0 0.0
2016-Feb-14 07:30N 39°49' W 075°23'0 0.0
2016-Feb-14 06:33N 39°49' W 075°23'0 0.0
2016-Feb-14 05:26N 39°49' W 075°23'0 0.0
2016-Feb-14 04:33N 39°49' W 075°23'0 0.0
2016-Feb-14 03:20N 39°49' W 075°23'0 0.0
2016-Feb-14 02:33N 39°49' W 075°23'0 0.0
2016-Feb-14 01:30N 39°49' W 075°23'0 0.0
2016-Feb-14 00:33N 39°49' W 075°23'0 0.1
2016-Feb-13 23:33N 39°49' W 075°24'0 0.0
2016-Feb-13 22:27N 39°49' W 075°24'0 0.0
2016-Feb-13 19:11N 39°49' W 075°23'0 0.0
2016-Feb-13 18:10N 39°49' W 075°23'2 2.5
2016-Feb-13 17:33N 39°50' W 075°22'2 1.5
2016-Feb-13 16:32N 39°49' W 075°24'0 0.0
2016-Feb-13 15:32N 39°49' W 075°24'0 0.0
2016-Feb-13 14:33N 39°49' W 075°24'0 0.0
2016-Feb-13 13:32N 39°49' W 075°23'0 0.0
2016-Feb-13 12:32N 39°49' W 075°23'0 0.0
2016-Feb-13 11:24N 39°49' W 075°23'0 0.0
2016-Feb-13 10:30N 39°49' W 075°23'0 0.0
2016-Feb-13 09:33N 39°49' W 075°23'0 0.0
2016-Feb-13 08:32N 39°49' W 075°23'0 0.0
2016-Feb-13 07:32N 39°49' W 075°23'0 0.0
2016-Feb-13 06:31N 39°49' W 075°23'0 0.0
2016-Feb-13 05:34N 39°49' W 075°23'0 0.3
2016-Feb-13 04:34N 39°49' W 075°23'1 0.4
2016-Feb-13 02:32N 39°50' W 075°22'1 0.5
2016-Feb-13 00:32N 39°49' W 075°23'0 0.0
2016-Feb-12 22:27N 39°49' W 075°23'0 0.0
2016-Feb-12 20:29N 39°49' W 075°23'0 0.0
2016-Feb-12 19:32N 39°49' W 075°23'0 0.0
2016-Feb-11 18:24N 39°49' W 075°24'2 1.8
2016-Feb-11 17:28N 39°49' W 075°22'5 0.2
2016-Feb-10 17:22N 39°47' W 075°27'0 0.5
2016-Feb-10 16:34N 39°48' W 075°27'0 0.4
2016-Feb-10 15:34N 39°47' W 075°27'0 0.0
2016-Feb-10 14:34N 39°47' W 075°27'0 0.4
2016-Feb-10 13:33N 39°48' W 075°27'0 0.0
2016-Feb-10 12:33N 39°48' W 075°27'0 0.0
2016-Feb-10 11:34N 39°48' W 075°27'0 0.1
2016-Feb-10 10:33N 39°48' W 075°27'0 0.2
2016-Feb-10 09:33N 39°47' W 075°27'0 0.0
2016-Feb-10 08:34N 39°47' W 075°27'0 0.0
2016-Feb-10 07:34N 39°47' W 075°27'0 0.0
2016-Feb-10 06:34N 39°47' W 075°27'0 0.0
2016-Feb-10 05:33N 39°47' W 075°27'0 0.0
2016-Feb-10 04:33N 39°47' W 075°27'0 0.0
2016-Feb-10 03:34N 39°47' W 075°27'0 0.0
2016-Feb-10 02:34N 39°47' W 075°27'0 0.0
2016-Feb-10 01:34N 39°47' W 075°27'0 0.0
2016-Feb-10 00:34N 39°47' W 075°27'0 0.0
2016-Feb-09 23:34N 39°47' W 075°27'0 0.0
2016-Feb-09 22:34N 39°47' W 075°27'0 0.0
2016-Feb-09 21:34N 39°47' W 075°27'0 0.0
2016-Feb-09 20:29N 39°47' W 075°27'0 0.0
2016-Feb-09 19:34N 39°47' W 075°27'0 0.1
2016-Feb-09 18:33N 39°47' W 075°27'0 0.2
2016-Feb-09 17:34N 39°47' W 075°27'0 0.0
2016-Feb-09 16:33N 39°47' W 075°27'0 0.0
2016-Feb-09 15:34N 39°47' W 075°27'0 0.0
2016-Feb-09 14:34N 39°47' W 075°27'2 2.4
2016-Feb-09 13:33N 39°48' W 075°25'3 2.8
2016-Feb-09 12:33N 39°50' W 075°22'0 0.0
2016-Feb-09 11:33N 39°50' W 075°22'1 1.4
2016-Feb-09 10:34N 39°51' W 075°20'0 0.2
2016-Feb-09 09:34N 39°51' W 075°21'1 1.2
2016-Feb-09 08:34N 39°50' W 075°22'1 1.1
2016-Feb-09 07:34N 39°50' W 075°23'4 3.8
2016-Feb-09 06:34N 39°47' W 075°27'0 0.3
2016-Feb-09 05:34N 39°47' W 075°27'0 0.0
2016-Feb-09 04:34N 39°47' W 075°27'0 0.0
2016-Feb-09 03:34N 39°47' W 075°27'0 0.0
2016-Feb-09 02:34N 39°47' W 075°27'0 0.0
2016-Feb-09 01:34N 39°47' W 075°27'0 0.0
2016-Feb-09 00:34N 39°47' W 075°27'0 0.0
2016-Feb-08 23:34N 39°47' W 075°27'0 0.0
2016-Feb-08 22:34N 39°47' W 075°27'5 4.7
2016-Feb-08 21:34N 39°50' W 075°22'4 3.8
2016-Feb-08 20:34N 39°48' W 075°26'0 0.4
2016-Feb-08 19:34N 39°48' W 075°27'0 0.5
2016-Feb-08 18:34N 39°47' W 075°27'0 0.0
2016-Feb-08 17:33N 39°47' W 075°27'0 0.0
2016-Feb-08 16:33N 39°47' W 075°27'0 0.1
2016-Feb-08 15:34N 39°47' W 075°27'2 2.4
2016-Feb-08 14:33N 39°49' W 075°24'2 2.3
2016-Feb-08 13:34N 39°50' W 075°22'1 1.0
2016-Feb-08 12:34N 39°51' W 075°21'1 0.2
2016-Feb-08 08:22N 39°50' W 075°22'0 0.0
2016-Feb-08 07:33N 39°50' W 075°22'1 0.9
2016-Feb-08 06:34N 39°51' W 075°21'0 0.0
2016-Feb-08 05:34N 39°51' W 075°21'0 0.0
2016-Feb-08 04:33N 39°51' W 075°21'0 0.0
2016-Feb-08 03:34N 39°51' W 075°21'0 0.0
2016-Feb-08 02:34N 39°51' W 075°21'0 0.0
2016-Feb-08 01:33N 39°51' W 075°21'0 0.0
2016-Feb-08 00:34N 39°51' W 075°21'0 0.0
2016-Feb-07 23:34N 39°51' W 075°21'0 0.0
2016-Feb-07 22:34N 39°51' W 075°21'0 0.0
2016-Feb-07 21:34N 39°51' W 075°21'0 0.0
2016-Feb-07 20:34N 39°51' W 075°21'0 0.0
2016-Feb-07 19:34N 39°51' W 075°21'0 0.0
2016-Feb-07 18:34N 39°51' W 075°21'0 0.0
2016-Feb-07 17:33N 39°51' W 075°21'0 0.0
2016-Feb-07 16:34N 39°51' W 075°21'0 0.0
2016-Feb-07 15:34N 39°51' W 075°21'0 0.0
2016-Feb-07 14:33N 39°51' W 075°21'0 0.0
2016-Feb-07 13:33N 39°51' W 075°21'0 0.0
2016-Feb-07 12:34N 39°51' W 075°21'0 0.0
2016-Feb-07 11:34N 39°51' W 075°21'0 0.0
2016-Feb-07 10:34N 39°51' W 075°21'0 0.0
2016-Feb-07 09:34N 39°51' W 075°21'0 0.0
2016-Feb-07 08:34N 39°51' W 075°21'0 0.0
2016-Feb-07 07:34N 39°51' W 075°21'0 0.0
2016-Feb-07 06:34N 39°51' W 075°21'1 1.0
2016-Feb-07 05:34N 39°50' W 075°22'0 0.1
2016-Feb-07 04:34N 39°50' W 075°22'1 0.9
2016-Feb-07 03:34N 39°51' W 075°21'0 0.1
2016-Feb-07 02:34N 39°51' W 075°21'0 0.0
2016-Feb-07 01:34N 39°51' W 075°21'0 0.0
2016-Feb-07 00:34N 39°51' W 075°21'0 0.0
2016-Feb-06 23:34N 39°51' W 075°21'0 0.0
2016-Feb-06 22:34N 39°51' W 075°21'0 0.0
2016-Feb-06 21:34N 39°51' W 075°21'0 0.0
2016-Feb-06 20:34N 39°51' W 075°21'0 0.0
2016-Feb-06 19:34N 39°51' W 075°21'0 0.0
2016-Feb-06 18:34N 39°51' W 075°21'0 0.0
2016-Feb-06 17:34N 39°51' W 075°21'0 0.0
2016-Feb-06 16:34N 39°51' W 075°21'0 0.0
2016-Feb-06 15:34N 39°51' W 075°21'0 0.0
2016-Feb-06 14:34N 39°51' W 075°21'0 0.0
2016-Feb-06 13:34N 39°51' W 075°21'2 1.8
2016-Feb-06 12:34N 39°50' W 075°23'2 1.8
2016-Feb-06 11:34N 39°51' W 075°21'0 0.0
2016-Feb-06 10:34N 39°51' W 075°21'0 0.0
2016-Feb-06 09:34N 39°51' W 075°21'0 0.0
2016-Feb-06 08:33N 39°51' W 075°21'0 0.0
2016-Feb-06 07:33N 39°51' W 075°21'0 0.0
2016-Feb-06 06:34N 39°51' W 075°21'0 0.0
2016-Feb-06 05:34N 39°51' W 075°21'0 0.0
2016-Feb-06 04:34N 39°51' W 075°21'0 0.0
2016-Feb-06 03:34N 39°51' W 075°21'0 0.0
2016-Feb-06 02:34N 39°51' W 075°21'0 0.0
2016-Feb-06 01:33N 39°51' W 075°21'0 0.0
2016-Feb-06 00:34N 39°51' W 075°21'0 0.0
2016-Feb-05 23:34N 39°51' W 075°21'0 0.0
2016-Feb-05 22:33N 39°51' W 075°21'0 0.0
2016-Feb-05 21:34N 39°51' W 075°21'0 0.0
2016-Feb-05 20:34N 39°51' W 075°21'0 0.0
2016-Feb-05 19:34N 39°51' W 075°21'0 0.0
2016-Feb-05 18:33N 39°51' W 075°21'0 0.0
2016-Feb-05 17:34N 39°51' W 075°21'0 0.0
2016-Feb-05 16:34N 39°51' W 075°21'0 0.0
2016-Feb-05 15:33N 39°51' W 075°21'0 0.0
2016-Feb-05 14:33N 39°51' W 075°21'2 1.5
2016-Feb-05 13:34N 39°50' W 075°23'1 0.8
2016-Feb-05 12:34N 39°50' W 075°22'0 0.0
2016-Feb-05 11:34N 39°50' W 075°22'0 0.0
2016-Feb-05 10:34N 39°50' W 075°22'1 1.3
2016-Feb-05 09:34N 39°51' W 075°20'0 0.4
2016-Feb-05 08:34N 39°51' W 075°21'2 1.9
2016-Feb-05 07:34N 39°50' W 075°23'2 1.7
2016-Feb-05 06:34N 39°51' W 075°21'0 0.0
2016-Feb-05 05:34N 39°51' W 075°21'0 0.0
2016-Feb-05 04:34N 39°51' W 075°21'0 0.0
2016-Feb-05 03:34N 39°51' W 075°21'0 0.0
2016-Feb-05 02:34N 39°51' W 075°21'0 0.0
2016-Feb-05 01:34N 39°51' W 075°21'0 0.0
2016-Feb-05 00:34N 39°51' W 075°21'0 0.0
2016-Feb-04 23:33N 39°51' W 075°21'0 0.0
2016-Feb-04 22:34N 39°51' W 075°21'0 0.0
2016-Feb-04 21:34N 39°51' W 075°21'0 0.0
2016-Feb-04 20:34N 39°51' W 075°21'  

Dump ship's entire track history